sensor_id;sensor_type;location;lat;lon;timestamp;temperature;humidity
44900;DHT22;30628;51.188;6.770;2022-08-25T00:01:57;27.00;83.00
44900;DHT22;30628;51.188;6.770;2022-08-25T00:04:25;26.90;83.60
44900;DHT22;30628;51.188;6.770;2022-08-25T00:06:52;26.90;83.30
44900;DHT22;30628;51.188;6.770;2022-08-25T00:09:24;26.90;83.70
44900;DHT22;30628;51.188;6.770;2022-08-25T00:11:53;26.90;83.20
44900;DHT22;30628;51.188;6.770;2022-08-25T00:14:26;27.00;83.30
44900;DHT22;30628;51.188;6.770;2022-08-25T00:16:53;27.00;83.40
44900;DHT22;30628;51.188;6.770;2022-08-25T00:19:26;27.00;83.00
44900;DHT22;30628;51.188;6.770;2022-08-25T00:21:52;27.00;82.50
44900;DHT22;30628;51.188;6.770;2022-08-25T00:24:21;27.00;82.70
44900;DHT22;30628;51.188;6.770;2022-08-25T00:26:50;27.00;82.80
44900;DHT22;30628;51.188;6.770;2022-08-25T00:29:16;27.00;83.00
44900;DHT22;30628;51.188;6.770;2022-08-25T00:31:43;27.00;83.30
44900;DHT22;30628;51.188;6.770;2022-08-25T00:34:15;27.00;82.90
44900;DHT22;30628;51.188;6.770;2022-08-25T00:36:42;27.00;83.40
44900;DHT22;30628;51.188;6.770;2022-08-25T00:39:09;27.10;83.70
44900;DHT22;30628;51.188;6.770;2022-08-25T00:41:37;27.10;83.90
44900;DHT22;30628;51.188;6.770;2022-08-25T00:44:07;27.00;84.00
44900;DHT22;30628;51.188;6.770;2022-08-25T00:46:44;27.00;85.30
44900;DHT22;30628;51.188;6.770;2022-08-25T00:49:20;26.90;85.50
44900;DHT22;30628;51.188;6.770;2022-08-25T00:51:55;26.70;86.10
44900;DHT22;30628;51.188;6.770;2022-08-25T00:54:29;26.50;85.80
44900;DHT22;30628;51.188;6.770;2022-08-25T00:56:58;26.40;85.60
44900;DHT22;30628;51.188;6.770;2022-08-25T00:59:25;26.50;85.50
44900;DHT22;30628;51.188;6.770;2022-08-25T01:01:53;26.50;85.40
44900;DHT22;30628;51.188;6.770;2022-08-25T01:04:20;26.50;85.40
44900;DHT22;30628;51.188;6.770;2022-08-25T01:06:47;26.50;85.50
44900;DHT22;30628;51.188;6.770;2022-08-25T01:09:14;26.60;84.80
44900;DHT22;30628;51.188;6.770;2022-08-25T01:11:43;26.60;85.70
44900;DHT22;30628;51.188;6.770;2022-08-25T01:14:12;26.60;85.10
44900;DHT22;30628;51.188;6.770;2022-08-25T01:16:40;26.50;85.20
44900;DHT22;30628;51.188;6.770;2022-08-25T01:19:09;26.40;85.60
44900;DHT22;30628;51.188;6.770;2022-08-25T01:21:46;26.40;85.40
44900;DHT22;30628;51.188;6.770;2022-08-25T01:25:00;26.40;85.40
44900;DHT22;30628;51.188;6.770;2022-08-25T01:27:25;26.50;85.10
44900;DHT22;30628;51.188;6.770;2022-08-25T01:29:52;26.50;85.30
44900;DHT22;30628;51.188;6.770;2022-08-25T01:32:18;26.50;85.30
44900;DHT22;30628;51.188;6.770;2022-08-25T01:34:45;26.40;86.30
44900;DHT22;30628;51.188;6.770;2022-08-25T01:37:13;26.30;86.50
44900;DHT22;30628;51.188;6.770;2022-08-25T01:39:41;26.30;86.30
44900;DHT22;30628;51.188;6.770;2022-08-25T01:44:42;26.30;86.90
44900;DHT22;30628;51.188;6.770;2022-08-25T01:47:09;26.20;87.80
44900;DHT22;30628;51.188;6.770;2022-08-25T01:49:36;26.20;86.20
44900;DHT22;30628;51.188;6.770;2022-08-25T01:52:11;26.20;86.40
44900;DHT22;30628;51.188;6.770;2022-08-25T01:54:39;26.20;86.90
44900;DHT22;30628;51.188;6.770;2022-08-25T01:57:06;26.30;86.50
44900;DHT22;30628;51.188;6.770;2022-08-25T01:59:32;26.30;86.00
44900;DHT22;30628;51.188;6.770;2022-08-25T02:01:58;26.30;86.00
44900;DHT22;30628;51.188;6.770;2022-08-25T02:04:24;26.20;85.90
44900;DHT22;30628;51.188;6.770;2022-08-25T02:06:51;26.20;86.00
44900;DHT22;30628;51.188;6.770;2022-08-25T02:09:18;26.20;86.30
44900;DHT22;30628;51.188;6.770;2022-08-25T02:11:45;26.20;86.10
44900;DHT22;30628;51.188;6.770;2022-08-25T02:14:14;26.20;86.60
44900;DHT22;30628;51.188;6.770;2022-08-25T02:16:44;26.20;86.80
44900;DHT22;30628;51.188;6.770;2022-08-25T02:19:11;26.20;87.30
44900;DHT22;30628;51.188;6.770;2022-08-25T02:21:37;26.10;87.90
44900;DHT22;30628;51.188;6.770;2022-08-25T02:24:05;26.00;87.00
44900;DHT22;30628;51.188;6.770;2022-08-25T02:26:32;26.10;87.00
44900;DHT22;30628;51.188;6.770;2022-08-25T02:28:58;26.00;88.10
44900;DHT22;30628;51.188;6.770;2022-08-25T02:31:25;26.00;87.70
44900;DHT22;30628;51.188;6.770;2022-08-25T02:33:52;26.00;87.30
44900;DHT22;30628;51.188;6.770;2022-08-25T02:36:19;26.00;87.70
44900;DHT22;30628;51.188;6.770;2022-08-25T02:38:46;26.00;87.90
44900;DHT22;30628;51.188;6.770;2022-08-25T02:41:19;25.90;87.60
44900;DHT22;30628;51.188;6.770;2022-08-25T02:43:48;25.90;87.00
44900;DHT22;30628;51.188;6.770;2022-08-25T02:46:16;25.90;86.80
44900;DHT22;30628;51.188;6.770;2022-08-25T02:48:43;25.90;87.30
44900;DHT22;30628;51.188;6.770;2022-08-25T02:51:10;25.90;86.80
44900;DHT22;30628;51.188;6.770;2022-08-25T02:53:38;25.90;87.00
44900;DHT22;30628;51.188;6.770;2022-08-25T02:56:07;25.90;86.20
44900;DHT22;30628;51.188;6.770;2022-08-25T02:58:35;25.90;87.00
44900;DHT22;30628;51.188;6.770;2022-08-25T03:01:02;25.90;86.80
44900;DHT22;30628;51.188;6.770;2022-08-25T03:03:29;25.90;86.40
44900;DHT22;30628;51.188;6.770;2022-08-25T03:05:55;25.90;86.20
44900;DHT22;30628;51.188;6.770;2022-08-25T03:08:22;25.90;87.10
44900;DHT22;30628;51.188;6.770;2022-08-25T03:10:49;25.90;86.90
44900;DHT22;30628;51.188;6.770;2022-08-25T03:13:15;25.80;87.30
44900;DHT22;30628;51.188;6.770;2022-08-25T03:15:42;25.90;86.60
44900;DHT22;30628;51.188;6.770;2022-08-25T03:18:09;25.80;86.70
44900;DHT22;30628;51.188;6.770;2022-08-25T03:20:37;25.80;86.80
44900;DHT22;30628;51.188;6.770;2022-08-25T03:23:05;25.80;86.90
44900;DHT22;30628;51.188;6.770;2022-08-25T03:25:32;25.80;87.00
44900;DHT22;30628;51.188;6.770;2022-08-25T03:28:17;25.80;87.20
44900;DHT22;30628;51.188;6.770;2022-08-25T03:30:45;25.70;86.60
44900;DHT22;30628;51.188;6.770;2022-08-25T03:33:11;25.60;87.10
44900;DHT22;30628;51.188;6.770;2022-08-25T03:35:37;25.60;87.50
44900;DHT22;30628;51.188;6.770;2022-08-25T03:38:04;25.50;88.10
44900;DHT22;30628;51.188;6.770;2022-08-25T03:40:30;25.40;87.70
44900;DHT22;30628;51.188;6.770;2022-08-25T03:42:57;25.40;87.40
44900;DHT22;30628;51.188;6.770;2022-08-25T03:45:24;25.40;87.40
44900;DHT22;30628;51.188;6.770;2022-08-25T03:47:51;25.50;87.20
44900;DHT22;30628;51.188;6.770;2022-08-25T03:50:19;25.50;87.60
44900;DHT22;30628;51.188;6.770;2022-08-25T03:52:51;25.50;87.20
44900;DHT22;30628;51.188;6.770;2022-08-25T03:55:19;25.40;87.70
44900;DHT22;30628;51.188;6.770;2022-08-25T03:57:46;25.40;87.30
44900;DHT22;30628;51.188;6.770;2022-08-25T04:00:12;25.40;87.80
44900;DHT22;30628;51.188;6.770;2022-08-25T04:02:39;25.40;87.70
44900;DHT22;30628;51.188;6.770;2022-08-25T04:05:07;25.40;88.30
44900;DHT22;30628;51.188;6.770;2022-08-25T04:07:33;25.40;88.30
44900;DHT22;30628;51.188;6.770;2022-08-25T04:09:59;25.40;88.00
44900;DHT22;30628;51.188;6.770;2022-08-25T04:12:25;25.30;88.00
44900;DHT22;30628;51.188;6.770;2022-08-25T04:14:52;25.30;87.80
44900;DHT22;30628;51.188;6.770;2022-08-25T04:17:18;25.40;87.90
44900;DHT22;30628;51.188;6.770;2022-08-25T04:19:44;25.40;87.80
44900;DHT22;30628;51.188;6.770;2022-08-25T04:22:10;25.40;87.80
44900;DHT22;30628;51.188;6.770;2022-08-25T04:24:37;25.40;88.10
44900;DHT22;30628;51.188;6.770;2022-08-25T04:27:03;25.30;87.80
44900;DHT22;30628;51.188;6.770;2022-08-25T04:29:29;25.30;87.90
44900;DHT22;30628;51.188;6.770;2022-08-25T04:31:55;25.30;87.80
44900;DHT22;30628;51.188;6.770;2022-08-25T04:34:23;25.30;87.50
44900;DHT22;30628;51.188;6.770;2022-08-25T04:36:50;25.20;88.30
44900;DHT22;30628;51.188;6.770;2022-08-25T04:39:18;25.20;88.20
44900;DHT22;30628;51.188;6.770;2022-08-25T04:41:46;25.20;88.40
44900;DHT22;30628;51.188;6.770;2022-08-25T04:44:13;25.20;88.30
44900;DHT22;30628;51.188;6.770;2022-08-25T04:46:39;25.20;88.40
44900;DHT22;30628;51.188;6.770;2022-08-25T04:49:05;25.20;88.50
44900;DHT22;30628;51.188;6.770;2022-08-25T04:51:34;25.20;88.20
44900;DHT22;30628;51.188;6.770;2022-08-25T04:54:03;25.20;88.70
44900;DHT22;30628;51.188;6.770;2022-08-25T04:56:31;25.20;88.90
44900;DHT22;30628;51.188;6.770;2022-08-25T04:59:02;25.10;88.10
44900;DHT22;30628;51.188;6.770;2022-08-25T05:01:29;25.10;88.60
44900;DHT22;30628;51.188;6.770;2022-08-25T05:03:59;25.10;88.70
44900;DHT22;30628;51.188;6.770;2022-08-25T05:06:26;25.10;88.40
44900;DHT22;30628;51.188;6.770;2022-08-25T05:08:54;25.00;89.20
44900;DHT22;30628;51.188;6.770;2022-08-25T05:11:21;25.00;88.70
44900;DHT22;30628;51.188;6.770;2022-08-25T05:13:49;25.00;88.50
44900;DHT22;30628;51.188;6.770;2022-08-25T05:16:16;25.00;89.00
44900;DHT22;30628;51.188;6.770;2022-08-25T05:18:43;25.00;89.00
44900;DHT22;30628;51.188;6.770;2022-08-25T05:21:12;25.00;88.70
44900;DHT22;30628;51.188;6.770;2022-08-25T05:23:40;25.00;88.40
44900;DHT22;30628;51.188;6.770;2022-08-25T05:26:15;25.00;88.90
44900;DHT22;30628;51.188;6.770;2022-08-25T05:28:42;25.00;89.10
44900;DHT22;30628;51.188;6.770;2022-08-25T05:31:10;25.10;89.00
44900;DHT22;30628;51.188;6.770;2022-08-25T05:33:38;25.10;89.00
44900;DHT22;30628;51.188;6.770;2022-08-25T05:36:05;25.00;89.30
44900;DHT22;30628;51.188;6.770;2022-08-25T05:38:31;25.00;89.20
44900;DHT22;30628;51.188;6.770;2022-08-25T05:41:00;25.10;89.30
44900;DHT22;30628;51.188;6.770;2022-08-25T05:43:27;25.10;90.20
44900;DHT22;30628;51.188;6.770;2022-08-25T05:45:54;25.10;89.30
44900;DHT22;30628;51.188;6.770;2022-08-25T05:48:21;25.10;89.40
44900;DHT22;30628;51.188;6.770;2022-08-25T05:50:57;25.20;89.00
44900;DHT22;30628;51.188;6.770;2022-08-25T05:53:26;25.10;88.90
44900;DHT22;30628;51.188;6.770;2022-08-25T05:55:54;25.20;89.50
44900;DHT22;30628;51.188;6.770;2022-08-25T05:58:21;25.30;89.00
44900;DHT22;30628;51.188;6.770;2022-08-25T06:00:49;25.30;89.30
44900;DHT22;30628;51.188;6.770;2022-08-25T06:03:16;25.40;89.70
44900;DHT22;30628;51.188;6.770;2022-08-25T06:05:42;25.40;89.00
44900;DHT22;30628;51.188;6.770;2022-08-25T06:08:08;25.60;88.70
44900;DHT22;30628;51.188;6.770;2022-08-25T06:10:35;25.60;89.30
44900;DHT22;30628;51.188;6.770;2022-08-25T06:13:02;25.70;89.40
44900;DHT22;30628;51.188;6.770;2022-08-25T06:15:30;25.70;88.30
44900;DHT22;30628;51.188;6.770;2022-08-25T06:17:56;25.80;88.80
44900;DHT22;30628;51.188;6.770;2022-08-25T06:20:28;25.90;88.10
44900;DHT22;30628;51.188;6.770;2022-08-25T06:22:56;25.90;88.20
44900;DHT22;30628;51.188;6.770;2022-08-25T06:25:25;26.00;87.90
44900;DHT22;30628;51.188;6.770;2022-08-25T06:27:53;26.20;87.00
44900;DHT22;30628;51.188;6.770;2022-08-25T06:30:21;26.20;86.70
44900;DHT22;30628;51.188;6.770;2022-08-25T06:32:48;26.30;87.80
44900;DHT22;30628;51.188;6.770;2022-08-25T06:35:17;26.40;87.60
44900;DHT22;30628;51.188;6.770;2022-08-25T06:37:44;26.50;89.90
44900;DHT22;30628;51.188;6.770;2022-08-25T06:40:11;26.60;87.20
44900;DHT22;30628;51.188;6.770;2022-08-25T06:42:38;26.60;87.80
44900;DHT22;30628;51.188;6.770;2022-08-25T06:45:05;26.70;87.10
44900;DHT22;30628;51.188;6.770;2022-08-25T06:47:32;26.80;88.00
44900;DHT22;30628;51.188;6.770;2022-08-25T06:49:58;26.90;86.00
44900;DHT22;30628;51.188;6.770;2022-08-25T06:52:24;27.00;88.10
44900;DHT22;30628;51.188;6.770;2022-08-25T06:54:51;27.00;88.60
44900;DHT22;30628;51.188;6.770;2022-08-25T06:57:18;27.20;89.00
44900;DHT22;30628;51.188;6.770;2022-08-25T06:59:44;27.30;87.80
44900;DHT22;30628;51.188;6.770;2022-08-25T07:02:10;27.40;88.60
44900;DHT22;30628;51.188;6.770;2022-08-25T07:04:37;27.50;86.50
44900;DHT22;30628;51.188;6.770;2022-08-25T07:07:03;27.60;87.60
44900;DHT22;30628;51.188;6.770;2022-08-25T07:09:30;27.70;86.90
44900;DHT22;30628;51.188;6.770;2022-08-25T07:11:57;27.70;87.80
44900;DHT22;30628;51.188;6.770;2022-08-25T07:14:24;27.70;86.90
44900;DHT22;30628;51.188;6.770;2022-08-25T07:16:51;27.80;86.90
44900;DHT22;30628;51.188;6.770;2022-08-25T07:19:17;27.90;86.80
44900;DHT22;30628;51.188;6.770;2022-08-25T07:21:47;27.90;87.10
44900;DHT22;30628;51.188;6.770;2022-08-25T07:24:14;28.00;86.70
44900;DHT22;30628;51.188;6.770;2022-08-25T07:26:42;28.00;87.70
44900;DHT22;30628;51.188;6.770;2022-08-25T07:29:16;28.00;86.70
44900;DHT22;30628;51.188;6.770;2022-08-25T07:31:43;28.10;85.80
44900;DHT22;30628;51.188;6.770;2022-08-25T07:34:09;28.20;87.00
44900;DHT22;30628;51.188;6.770;2022-08-25T07:36:55;28.30;86.70
44900;DHT22;30628;51.188;6.770;2022-08-25T07:39:22;28.30;86.40
44900;DHT22;30628;51.188;6.770;2022-08-25T07:41:50;28.30;85.70
44900;DHT22;30628;51.188;6.770;2022-08-25T07:44:16;28.30;87.10
44900;DHT22;30628;51.188;6.770;2022-08-25T07:46:44;28.30;85.50
44900;DHT22;30628;51.188;6.770;2022-08-25T07:49:10;28.30;86.60
44900;DHT22;30628;51.188;6.770;2022-08-25T07:51:36;28.30;86.10
44900;DHT22;30628;51.188;6.770;2022-08-25T07:54:04;28.40;85.90
44900;DHT22;30628;51.188;6.770;2022-08-25T07:56:30;28.30;87.20
44900;DHT22;30628;51.188;6.770;2022-08-25T07:58:57;28.40;86.20
44900;DHT22;30628;51.188;6.770;2022-08-25T08:01:24;28.40;85.60
44900;DHT22;30628;51.188;6.770;2022-08-25T08:03:51;28.40;87.00
44900;DHT22;30628;51.188;6.770;2022-08-25T08:06:20;28.50;85.80
44900;DHT22;30628;51.188;6.770;2022-08-25T08:08:48;28.50;86.50
44900;DHT22;30628;51.188;6.770;2022-08-25T08:11:27;28.60;86.30
44900;DHT22;30628;51.188;6.770;2022-08-25T08:13:54;28.60;85.60
44900;DHT22;30628;51.188;6.770;2022-08-25T08:16:23;28.60;86.60
44900;DHT22;30628;51.188;6.770;2022-08-25T08:18:49;28.70;86.70
44900;DHT22;30628;51.188;6.770;2022-08-25T08:21:25;28.70;85.70
44900;DHT22;30628;51.188;6.770;2022-08-25T08:23:52;28.70;85.70
44900;DHT22;30628;51.188;6.770;2022-08-25T08:26:20;28.80;85.00
44900;DHT22;30628;51.188;6.770;2022-08-25T08:28:47;28.90;85.70
44900;DHT22;30628;51.188;6.770;2022-08-25T08:31:14;28.80;85.20
44900;DHT22;30628;51.188;6.770;2022-08-25T08:33:46;29.00;85.10
44900;DHT22;30628;51.188;6.770;2022-08-25T08:36:12;29.00;86.00
44900;DHT22;30628;51.188;6.770;2022-08-25T08:38:40;29.20;86.00
44900;DHT22;30628;51.188;6.770;2022-08-25T08:57:51;29.60;85.30
44900;DHT22;30628;51.188;6.770;2022-08-25T09:00:21;29.70;85.20
44900;DHT22;30628;51.188;6.770;2022-08-25T09:03:01;29.70;85.00
44900;DHT22;30628;51.188;6.770;2022-08-25T09:05:28;29.90;84.70
44900;DHT22;30628;51.188;6.770;2022-08-25T09:07:58;30.00;84.60
44900;DHT22;30628;51.188;6.770;2022-08-25T09:10:32;30.10;85.60
44900;DHT22;30628;51.188;6.770;2022-08-25T09:16:05;30.20;83.60
44900;DHT22;30628;51.188;6.770;2022-08-25T09:18:59;30.40;84.30
44900;DHT22;30628;51.188;6.770;2022-08-25T09:30:19;30.90;84.10
44900;DHT22;30628;51.188;6.770;2022-08-25T09:32:52;31.00;84.40
44900;DHT22;30628;51.188;6.770;2022-08-25T09:35:27;31.00;82.80
44900;DHT22;30628;51.188;6.770;2022-08-25T09:38:04;31.10;82.60
44900;DHT22;30628;51.188;6.770;2022-08-25T09:40:35;31.20;82.60
44900;DHT22;30628;51.188;6.770;2022-08-25T09:43:04;31.20;81.50
44900;DHT22;30628;51.188;6.770;2022-08-25T09:48:26;31.50;82.90
44900;DHT22;30628;51.188;6.770;2022-08-25T09:50:58;31.60;83.00
44900;DHT22;30628;51.188;6.770;2022-08-25T09:53:26;31.60;83.30
44900;DHT22;30628;51.188;6.770;2022-08-25T09:56:03;31.80;82.50
44900;DHT22;30628;51.188;6.770;2022-08-25T09:58:31;31.90;81.80
44900;DHT22;30628;51.188;6.770;2022-08-25T10:01:23;31.90;82.80
44900;DHT22;30628;51.188;6.770;2022-08-25T10:04:02;32.00;82.80
44900;DHT22;30628;51.188;6.770;2022-08-25T10:06:49;32.10;81.70
44900;DHT22;30628;51.188;6.770;2022-08-25T10:09:34;32.30;82.40
44900;DHT22;30628;51.188;6.770;2022-08-25T10:12:21;32.40;81.20
44900;DHT22;30628;51.188;6.770;2022-08-25T10:14:49;32.40;81.40
44900;DHT22;30628;51.188;6.770;2022-08-25T10:17:33;32.50;80.90
44900;DHT22;30628;51.188;6.770;2022-08-25T10:22:41;32.70;81.50
44900;DHT22;30628;51.188;6.770;2022-08-25T10:25:14;32.70;80.10
44900;DHT22;30628;51.188;6.770;2022-08-25T10:28:03;32.80;82.80
44900;DHT22;30628;51.188;6.770;2022-08-25T10:36:19;32.90;80.60
44900;DHT22;30628;51.188;6.770;2022-08-25T10:39:00;32.50;78.10
44900;DHT22;30628;51.188;6.770;2022-08-25T10:47:18;32.90;80.40
44900;DHT22;30628;51.188;6.770;2022-08-25T10:49:55;32.80;81.20
44900;DHT22;30628;51.188;6.770;2022-08-25T10:52:37;32.80;81.70
44900;DHT22;30628;51.188;6.770;2022-08-25T10:55:15;32.70;81.50
44900;DHT22;30628;51.188;6.770;2022-08-25T10:58:01;32.80;79.50
44900;DHT22;30628;51.188;6.770;2022-08-25T11:00:37;32.80;78.40
44900;DHT22;30628;51.188;6.770;2022-08-25T11:05:50;32.60;82.40
44900;DHT22;30628;51.188;6.770;2022-08-25T11:08:52;32.50;79.40
44900;DHT22;30628;51.188;6.770;2022-08-25T11:11:33;32.50;80.80
44900;DHT22;30628;51.188;6.770;2022-08-25T11:14:20;32.50;82.50
44900;DHT22;30628;51.188;6.770;2022-08-25T11:19:43;32.50;82.50
44900;DHT22;30628;51.188;6.770;2022-08-25T11:25:28;32.30;78.20
44900;DHT22;30628;51.188;6.770;2022-08-25T11:30:41;32.30;82.90
44900;DHT22;30628;51.188;6.770;2022-08-25T11:33:18;32.30;81.30
44900;DHT22;30628;51.188;6.770;2022-08-25T11:49:47;32.10;83.40
44900;DHT22;30628;51.188;6.770;2022-08-25T11:52:50;32.20;78.00
44900;DHT22;30628;51.188;6.770;2022-08-25T12:01:00;32.20;81.80
44900;DHT22;30628;51.188;6.770;2022-08-25T12:27:35;32.20;82.70
44900;DHT22;30628;51.188;6.770;2022-08-25T12:30:09;32.20;81.10
44900;DHT22;30628;51.188;6.770;2022-08-25T12:35:59;32.20;81.80
44900;DHT22;30628;51.188;6.770;2022-08-25T12:38:30;32.40;83.20
44900;DHT22;30628;51.188;6.770;2022-08-25T12:43:37;32.50;79.30
44900;DHT22;30628;51.188;6.770;2022-08-25T12:51:22;32.40;78.10
44900;DHT22;30628;51.188;6.770;2022-08-25T12:54:10;32.40;76.60
44900;DHT22;30628;51.188;6.770;2022-08-25T12:56:45;32.40;80.10
44900;DHT22;30628;51.188;6.770;2022-08-25T12:59:24;32.40;82.30
44900;DHT22;30628;51.188;6.770;2022-08-25T13:02:11;32.20;72.90
44900;DHT22;30628;51.188;6.770;2022-08-25T13:07:48;32.40;78.30
44900;DHT22;30628;51.188;6.770;2022-08-25T13:10:56;32.50;74.70
44900;DHT22;30628;51.188;6.770;2022-08-25T13:16:23;32.60;79.90
44900;DHT22;30628;51.188;6.770;2022-08-25T13:18:51;32.80;82.40
44900;DHT22;30628;51.188;6.770;2022-08-25T13:21:30;32.80;80.10
44900;DHT22;30628;51.188;6.770;2022-08-25T13:24:00;32.70;77.50
44900;DHT22;30628;51.188;6.770;2022-08-25T13:26:32;32.80;81.70
44900;DHT22;30628;51.188;6.770;2022-08-25T13:29:24;32.90;81.50
44900;DHT22;30628;51.188;6.770;2022-08-25T13:31:57;33.00;83.00
44900;DHT22;30628;51.188;6.770;2022-08-25T13:34:28;32.90;73.20
44900;DHT22;30628;51.188;6.770;2022-08-25T13:36:55;32.50;71.30
44900;DHT22;30628;51.188;6.770;2022-08-25T13:39:40;32.40;70.60
44900;DHT22;30628;51.188;6.770;2022-08-25T13:42:13;32.60;81.00
44900;DHT22;30628;51.188;6.770;2022-08-25T13:44:40;32.80;80.00
44900;DHT22;30628;51.188;6.770;2022-08-25T13:47:15;32.90;81.40
44900;DHT22;30628;51.188;6.770;2022-08-25T13:49:44;33.10;81.70
44900;DHT22;30628;51.188;6.770;2022-08-25T13:52:25;33.20;82.00
44900;DHT22;30628;51.188;6.770;2022-08-25T13:54:59;33.30;82.30
44900;DHT22;30628;51.188;6.770;2022-08-25T13:57:28;33.10;73.30
44900;DHT22;30628;51.188;6.770;2022-08-25T14:00:00;33.00;81.70
44900;DHT22;30628;51.188;6.770;2022-08-25T14:02:48;33.20;80.30
44900;DHT22;30628;51.188;6.770;2022-08-25T14:05:38;33.10;81.80
44900;DHT22;30628;51.188;6.770;2022-08-25T14:08:07;33.20;81.70
44900;DHT22;30628;51.188;6.770;2022-08-25T14:11:14;33.20;76.60
44900;DHT22;30628;51.188;6.770;2022-08-25T14:13:42;33.00;80.40
44900;DHT22;30628;51.188;6.770;2022-08-25T14:16:21;33.20;81.80
44900;DHT22;30628;51.188;6.770;2022-08-25T14:18:54;33.50;82.00
44900;DHT22;30628;51.188;6.770;2022-08-25T14:21:29;33.60;82.00
44900;DHT22;30628;51.188;6.770;2022-08-25T14:23:56;33.70;82.60
44900;DHT22;30628;51.188;6.770;2022-08-25T14:26:23;33.60;81.70
44900;DHT22;30628;51.188;6.770;2022-08-25T14:28:49;33.40;79.60
44900;DHT22;30628;51.188;6.770;2022-08-25T14:31:29;33.20;74.30
44900;DHT22;30628;51.188;6.770;2022-08-25T14:36:24;32.80;72.70
44900;DHT22;30628;51.188;6.770;2022-08-25T14:38:51;32.70;76.70
44900;DHT22;30628;51.188;6.770;2022-08-25T14:41:19;33.00;79.60
44900;DHT22;30628;51.188;6.770;2022-08-25T14:43:46;33.00;72.20
44900;DHT22;30628;51.188;6.770;2022-08-25T14:46:22;33.30;79.50
44900;DHT22;30628;51.188;6.770;2022-08-25T14:48:53;33.30;73.80
44900;DHT22;30628;51.188;6.770;2022-08-25T14:51:21;33.30;74.20
44900;DHT22;30628;51.188;6.770;2022-08-25T14:53:48;33.30;81.10
44900;DHT22;30628;51.188;6.770;2022-08-25T14:56:15;33.50;80.30
44900;DHT22;30628;51.188;6.770;2022-08-25T14:58:41;33.50;74.40
44900;DHT22;30628;51.188;6.770;2022-08-25T15:01:13;33.50;74.30
44900;DHT22;30628;51.188;6.770;2022-08-25T15:03:43;33.20;71.30
44900;DHT22;30628;51.188;6.770;2022-08-25T15:06:15;33.00;70.40
44900;DHT22;30628;51.188;6.770;2022-08-25T15:08:43;32.70;69.90
44900;DHT22;30628;51.188;6.770;2022-08-25T15:11:29;32.80;77.50
44900;DHT22;30628;51.188;6.770;2022-08-25T15:13:56;33.10;79.40
44900;DHT22;30628;51.188;6.770;2022-08-25T15:18:58;33.00;71.10
44900;DHT22;30628;51.188;6.770;2022-08-25T15:21:24;32.90;74.60
44900;DHT22;30628;51.188;6.770;2022-08-25T15:23:51;33.10;74.30
44900;DHT22;30628;51.188;6.770;2022-08-25T15:26:17;33.00;77.90
44900;DHT22;30628;51.188;6.770;2022-08-25T15:28:46;33.30;79.90
44900;DHT22;30628;51.188;6.770;2022-08-25T15:31:15;33.50;80.30
44900;DHT22;30628;51.188;6.770;2022-08-25T15:33:42;33.50;79.50
44900;DHT22;30628;51.188;6.770;2022-08-25T15:36:10;33.60;74.20
44900;DHT22;30628;51.188;6.770;2022-08-25T15:38:38;33.50;75.10
44900;DHT22;30628;51.188;6.770;2022-08-25T15:41:06;33.50;76.10
44900;DHT22;30628;51.188;6.770;2022-08-25T15:43:33;33.50;76.40
44900;DHT22;30628;51.188;6.770;2022-08-25T15:45:59;33.50;75.50
44900;DHT22;30628;51.188;6.770;2022-08-25T15:48:26;33.60;75.80
44900;DHT22;30628;51.188;6.770;2022-08-25T15:50:53;33.60;73.10
44900;DHT22;30628;51.188;6.770;2022-08-25T15:53:20;33.60;74.50
44900;DHT22;30628;51.188;6.770;2022-08-25T15:55:48;33.60;74.30
44900;DHT22;30628;51.188;6.770;2022-08-25T15:58:15;33.60;74.30
44900;DHT22;30628;51.188;6.770;2022-08-25T16:00:42;33.60;74.50
44900;DHT22;30628;51.188;6.770;2022-08-25T16:03:09;33.50;72.20
44900;DHT22;30628;51.188;6.770;2022-08-25T16:05:37;33.60;74.10
44900;DHT22;30628;51.188;6.770;2022-08-25T16:08:04;33.40;74.40
44900;DHT22;30628;51.188;6.770;2022-08-25T16:10:41;33.40;73.70
44900;DHT22;30628;51.188;6.770;2022-08-25T16:13:08;33.50;73.40
44900;DHT22;30628;51.188;6.770;2022-08-25T16:15:36;33.50;73.50
44900;DHT22;30628;51.188;6.770;2022-08-25T16:18:03;33.40;72.50
44900;DHT22;30628;51.188;6.770;2022-08-25T16:20:32;33.30;72.80
44900;DHT22;30628;51.188;6.770;2022-08-25T16:22:58;33.40;73.50
44900;DHT22;30628;51.188;6.770;2022-08-25T16:25:28;33.30;73.50
44900;DHT22;30628;51.188;6.770;2022-08-25T16:27:54;33.30;72.80
44900;DHT22;30628;51.188;6.770;2022-08-25T16:30:21;33.30;73.60
44900;DHT22;30628;51.188;6.770;2022-08-25T16:32:47;33.30;73.90
44900;DHT22;30628;51.188;6.770;2022-08-25T16:35:13;33.30;74.30
44900;DHT22;30628;51.188;6.770;2022-08-25T16:37:39;33.30;73.80
44900;DHT22;30628;51.188;6.770;2022-08-25T16:40:07;33.30;74.10
44900;DHT22;30628;51.188;6.770;2022-08-25T16:42:33;33.30;73.20
44900;DHT22;30628;51.188;6.770;2022-08-25T16:44:59;33.30;74.30
44900;DHT22;30628;51.188;6.770;2022-08-25T16:47:25;33.30;71.40
44900;DHT22;30628;51.188;6.770;2022-08-25T16:49:51;33.30;74.80
44900;DHT22;30628;51.188;6.770;2022-08-25T16:52:18;33.30;74.00
44900;DHT22;30628;51.188;6.770;2022-08-25T16:55:02;33.20;75.10
44900;DHT22;30628;51.188;6.770;2022-08-25T16:57:39;33.20;72.70
44900;DHT22;30628;51.188;6.770;2022-08-25T17:00:09;33.20;75.40
44900;DHT22;30628;51.188;6.770;2022-08-25T17:02:37;33.20;75.60
44900;DHT22;30628;51.188;6.770;2022-08-25T17:05:04;33.20;74.60
44900;DHT22;30628;51.188;6.770;2022-08-25T17:07:31;33.20;74.90
44900;DHT22;30628;51.188;6.770;2022-08-25T17:09:58;33.20;74.70
44900;DHT22;30628;51.188;6.770;2022-08-25T17:12:25;33.10;74.00
44900;DHT22;30628;51.188;6.770;2022-08-25T17:14:52;33.20;73.70
44900;DHT22;30628;51.188;6.770;2022-08-25T17:17:18;33.10;74.90
44900;DHT22;30628;51.188;6.770;2022-08-25T17:19:45;33.00;74.00
44900;DHT22;30628;51.188;6.770;2022-08-25T17:22:12;33.00;73.70
44900;DHT22;30628;51.188;6.770;2022-08-25T17:24:41;32.90;71.30
44900;DHT22;30628;51.188;6.770;2022-08-25T17:27:08;32.90;72.30
44900;DHT22;30628;51.188;6.770;2022-08-25T17:29:35;32.90;71.40
44900;DHT22;30628;51.188;6.770;2022-08-25T17:32:03;32.90;71.40
44900;DHT22;30628;51.188;6.770;2022-08-25T17:34:30;32.70;69.90
44900;DHT22;30628;51.188;6.770;2022-08-25T17:36:57;32.70;72.10
44900;DHT22;30628;51.188;6.770;2022-08-25T17:39:24;32.60;71.10
44900;DHT22;30628;51.188;6.770;2022-08-25T17:41:51;32.60;72.10
44900;DHT22;30628;51.188;6.770;2022-08-25T17:44:18;32.50;71.10
44900;DHT22;30628;51.188;6.770;2022-08-25T17:46:45;32.50;70.20
44900;DHT22;30628;51.188;6.770;2022-08-25T17:49:11;32.50;70.10
44900;DHT22;30628;51.188;6.770;2022-08-25T17:51:38;32.50;70.60
44900;DHT22;30628;51.188;6.770;2022-08-25T17:54:04;32.40;70.00